createdAt,value
2016-02-29T00:00:57.592Z,3.96
2016-02-29T00:01:57.579Z,4.04
2016-02-29T00:02:57.426Z,3.93
2016-02-29T00:03:57.569Z,3.93
2016-02-29T00:04:57.572Z,3.94
2016-02-29T00:05:57.575Z,3.94
2016-02-29T00:06:57.545Z,3.96
2016-02-29T00:07:57.564Z,4.04
2016-02-29T00:08:57.567Z,4
2016-02-29T00:09:57.554Z,3.97
2016-02-29T00:10:57.557Z,3.93
2016-02-29T00:11:57.559Z,3.91
2016-02-29T00:12:57.547Z,3.98
2016-02-29T00:13:57.565Z,3.87
2016-02-29T00:14:57.552Z,3.98
2016-02-29T00:15:57.555Z,3.96
2016-02-29T00:16:57.526Z,4.02
2016-02-29T00:17:57.561Z,3.9
2016-02-29T00:18:57.531Z,3.9
2016-02-29T00:19:57.597Z,4.04
2016-02-29T00:20:57.519Z,3.94
2016-02-29T00:21:57.552Z,3.96
2016-02-29T00:22:57.524Z,4.04
2016-02-29T00:23:57.511Z,4.02
2016-02-29T00:24:57.529Z,4
2016-02-29T00:25:57.516Z,3.97
2016-02-29T00:26:57.503Z,3.97
2016-02-29T00:27:57.507Z,3.97
2016-02-29T00:28:57.509Z,4
2016-02-29T00:29:57.517Z,3.93
2016-02-29T00:30:57.520Z,4.02
2016-02-29T00:31:57.490Z,4
2016-02-29T00:32:57.493Z,3.97
2016-02-29T00:33:57.495Z,3.91
2016-02-29T00:34:57.498Z,3.83
2016-02-29T00:35:57.486Z,3.98
2016-02-29T00:36:57.488Z,3.98
2016-02-29T00:37:57.475Z,3.94
2016-02-29T00:38:57.478Z,4.04
2016-02-29T00:39:57.480Z,3.87
2016-02-29T00:40:57.483Z,3.9
2016-02-29T00:41:57.486Z,3.94
2016-02-29T00:42:57.473Z,3.86
2016-02-29T00:43:57.491Z,3.88
2016-02-29T00:44:57.463Z,3.91
2016-02-29T00:45:57.481Z,3.83
2016-02-29T00:46:57.468Z,3.88
2016-02-29T00:47:57.455Z,3.86
2016-02-29T00:48:57.458Z,3.93
2016-02-29T00:49:57.460Z,3.88
2016-02-29T00:50:57.448Z,3.9
2016-02-29T00:51:57.451Z,3.84
2016-02-29T00:52:57.453Z,3.86
2016-02-29T00:53:57.440Z,3.84
2016-02-29T00:54:57.443Z,3.84
2016-02-29T00:55:57.461Z,3.86
2016-02-29T00:56:57.432Z,3.8
2016-02-29T00:57:57.435Z,3.78
2016-02-29T00:58:57.438Z,3.8
2016-02-29T00:59:57.425Z,3.8
2016-02-29T01:00:57.443Z,3.8
2016-02-29T01:01:57.430Z,3.78
2016-02-29T01:02:57.417Z,3.86
2016-02-29T01:03:57.436Z,3.86
2016-02-29T01:04:57.423Z,3.84
2016-02-29T01:05:57.425Z,3.8
2016-02-29T01:06:57.444Z,3.78
2016-02-29T01:07:57.415Z,3.75
2016-02-29T01:08:57.402Z,3.83
2016-02-29T01:09:57.405Z,3.76
2016-02-29T01:10:57.391Z,3.69
2016-02-29T01:11:57.410Z,3.75
2016-02-29T01:12:57.413Z,3.73
2016-02-29T01:13:57.400Z,3.72
2016-02-29T01:14:57.388Z,3.7
2016-02-29T01:15:57.390Z,3.76
2016-02-29T01:16:57.393Z,3.75
2016-02-29T01:17:57.380Z,3.79
2016-02-29T01:18:57.383Z,3.75
2016-02-29T01:19:57.385Z,3.8
2016-02-29T01:20:57.371Z,3.76
2016-02-29T01:21:57.375Z,3.68
2016-02-29T01:22:57.377Z,3.73
2016-02-29T01:23:57.380Z,3.58
2016-02-29T01:24:57.368Z,3.75
2016-02-29T01:25:57.354Z,3.72
2016-02-29T01:26:57.357Z,3.68
2016-02-29T01:27:57.376Z,3.73
2016-02-29T01:28:57.426Z,3.7
2016-02-29T01:29:57.348Z,3.62
2016-02-29T01:30:57.351Z,3.69
2016-02-29T01:31:57.354Z,3.6
2016-02-29T01:32:57.342Z,3.62
2016-02-29T01:33:57.344Z,3.57
2016-02-29T01:34:57.332Z,3.58
2016-02-29T01:35:57.334Z,3.57
2016-02-29T01:36:57.353Z,3.68
2016-02-29T01:37:57.340Z,3.65
2016-02-29T01:38:57.327Z,3.57
2016-02-29T01:39:57.329Z,3.54
2016-02-29T01:40:57.316Z,3.58
2016-02-29T01:41:57.319Z,3.61
2016-02-29T01:42:57.322Z,3.58
2016-02-29T01:43:57.308Z,3.55
2016-02-29T01:44:56.655Z,3.51
2016-02-29T01:45:57.299Z,3.54
2016-02-29T01:46:57.302Z,3.51
2016-02-29T01:47:57.304Z,3.54
2016-02-29T01:48:57.291Z,3.57
2016-02-29T01:49:57.310Z,3.6
2016-02-29T01:50:57.296Z,3.61
2016-02-29T01:51:57.283Z,3.55
2016-02-29T01:52:57.302Z,3.51
2016-02-29T01:53:57.289Z,3.54
2016-02-29T01:54:57.277Z,3.52
2016-02-29T01:55:57.326Z,3.51
2016-02-29T01:56:57.266Z,3.52
2016-02-29T01:57:57.285Z,3.51
2016-02-29T01:58:57.271Z,3.43
2016-02-29T01:59:57.290Z,3.36
2016-02-29T02:00:57.259Z,3.43
2016-02-29T02:01:57.262Z,3.42
2016-02-29T02:02:57.219Z,3.43
2016-02-29T02:03:57.206Z,3.35
2016-02-29T02:04:57.194Z,3.35
2016-02-29T02:05:57.167Z,3.43
2016-02-29T02:06:57.164Z,3.33
2016-02-29T02:07:57.162Z,3.35
2016-02-29T02:08:57.175Z,3.35
2016-02-29T02:09:57.141Z,3.36
2016-02-29T02:10:57.139Z,3.36
2016-02-29T02:11:57.124Z,3.39
2016-02-29T02:12:57.156Z,3.26
2016-02-29T02:13:57.109Z,3.33
2016-02-29T02:14:57.142Z,3.26
2016-02-29T02:15:57.096Z,3.35
2016-02-29T02:16:57.082Z,3.28
2016-02-29T02:17:57.100Z,3.35
2016-02-29T02:18:57.086Z,3.33
2016-02-29T02:19:57.087Z,3.2
2016-02-29T02:20:57.075Z,3.31
2016-02-29T02:21:57.077Z,3.28
2016-02-29T02:22:57.065Z,3.21
2016-02-29T02:23:57.067Z,3.24
2016-02-29T02:24:57.070Z,3.23
2016-02-29T02:25:57.057Z,3.15
2016-02-29T02:26:57.091Z,3.2
2016-02-29T02:27:57.062Z,3.23
2016-02-29T02:28:57.049Z,3.13
2016-02-29T02:29:57.052Z,3.14
2016-02-29T02:30:57.054Z,3.17
2016-02-29T02:31:57.058Z,3.13
2016-02-29T02:32:57.045Z,3.15
2016-02-29T02:33:57.063Z,3.05
2016-02-29T02:34:57.050Z,2.99
2016-02-29T02:35:57.068Z,3.08
2016-02-29T02:36:57.055Z,3.06
2016-02-29T02:37:57.058Z,3
2016-02-29T02:38:57.029Z,3.03
2016-02-29T02:39:57.016Z,3
2016-02-29T02:40:57.035Z,3
2016-02-29T02:41:57.021Z,3.05
2016-02-29T02:42:57.024Z,2.96
2016-02-29T02:43:57.043Z,2.93
2016-02-29T02:44:57.030Z,2.9
2016-02-29T02:45:56.985Z,2.84
2016-02-29T02:46:57.035Z,2.81
2016-02-29T02:47:56.991Z,2.81
2016-02-29T02:48:57.009Z,2.82
2016-02-29T02:49:56.995Z,2.81
2016-02-29T02:50:56.984Z,2.79
2016-02-29T02:51:57.001Z,2.81
2016-02-29T02:52:57.051Z,2.81
2016-02-29T02:53:56.992Z,2.82
2016-02-29T02:54:56.962Z,2.79
2016-02-29T02:55:57.012Z,2.9
2016-02-29T02:56:56.968Z,2.82
2016-02-29T02:57:56.970Z,2.81
2016-02-29T02:58:57.021Z,2.82
2016-02-29T02:59:56.945Z,2.74
2016-02-29T03:00:56.995Z,2.84
2016-02-29T03:01:56.950Z,2.79
2016-02-29T03:02:56.969Z,2.78
2016-02-29T03:03:56.956Z,2.79
2016-02-29T03:04:56.928Z,2.71
2016-02-29T03:05:56.961Z,2.74
2016-02-29T03:06:56.917Z,2.66
2016-02-29T03:07:56.936Z,2.75
2016-02-29T03:08:56.938Z,2.63
2016-02-29T03:09:56.925Z,2.64
2016-02-29T03:10:56.928Z,2.59
2016-02-29T03:11:56.930Z,2.67
2016-02-29T03:12:56.918Z,2.66
2016-02-29T03:13:56.905Z,2.64
2016-02-29T03:14:56.907Z,2.64
2016-02-29T03:15:56.894Z,2.63
2016-02-29T03:16:56.897Z,2.64
2016-02-29T03:17:56.869Z,2.61
2016-02-29T03:18:56.871Z,2.59
2016-02-29T03:19:56.874Z,2.56
2016-02-29T03:20:56.876Z,2.57
2016-02-29T03:21:56.879Z,2.56
2016-02-29T03:22:56.850Z,2.56
2016-02-29T03:23:56.854Z,2.56
2016-02-29T03:24:56.840Z,2.49
2016-02-29T03:25:56.859Z,2.57
2016-02-29T03:26:56.861Z,2.54
2016-02-29T03:27:56.833Z,2.54
2016-02-29T03:28:56.836Z,2.52
2016-02-29T03:29:56.823Z,2.45
2016-02-29T03:30:56.826Z,2.48
2016-02-29T03:31:56.844Z,2.48
2016-02-29T03:32:56.831Z,2.42
2016-02-29T03:33:56.817Z,2.43
2016-02-29T03:34:56.806Z,2.45
2016-02-29T03:35:56.808Z,2.46
2016-02-29T03:36:56.811Z,2.41
2016-02-29T03:37:56.797Z,2.39
2016-02-29T03:38:56.785Z,2.46
2016-02-29T03:39:56.787Z,2.38
2016-02-29T03:40:56.790Z,2.34
2016-02-29T03:41:56.792Z,2.39
2016-02-29T03:42:56.779Z,2.42
2016-02-29T03:43:56.767Z,2.43
2016-02-29T03:44:56.769Z,2.31
2016-02-29T03:45:56.756Z,2.35
2016-02-29T03:46:56.759Z,2.34
2016-02-29T03:47:56.762Z,2.3
2016-02-29T03:48:56.765Z,2.31
2016-02-29T03:49:56.752Z,2.3
2016-02-29T03:50:56.754Z,2.34
2016-02-29T03:51:56.741Z,2.38
2016-02-29T03:52:56.743Z,2.3
2016-02-29T03:53:56.732Z,2.27
2016-02-29T03:54:56.734Z,2.25
2016-02-29T03:55:56.752Z,2.3
2016-02-29T03:56:56.739Z,2.28
2016-02-29T03:57:56.711Z,2.27
2016-02-29T03:58:56.698Z,2.28
2016-02-29T03:59:56.717Z,2.25
2016-02-29T04:00:56.703Z,2.23
2016-02-29T04:01:56.706Z,2.23
2016-02-29T04:02:56.693Z,2.23
2016-02-29T04:03:56.696Z,2.23
2016-02-29T04:04:56.683Z,2.28
2016-02-29T04:05:56.686Z,2.34
2016-02-29T04:06:56.689Z,2.16
2016-02-29T04:07:56.675Z,2.16
2016-02-29T04:08:56.661Z,2.17
2016-02-29T04:09:56.664Z,2.17
2016-02-29T04:10:56.667Z,2.18
2016-02-29T04:11:56.669Z,2.17
2016-02-29T04:12:56.844Z,2.18
2016-02-29T04:13:56.644Z,2.17
2016-02-29T04:14:56.647Z,2.17
2016-02-29T04:15:56.649Z,2.16
2016-02-29T04:16:56.652Z,2.14
2016-02-29T04:17:56.639Z,2.1
2016-02-29T04:18:56.643Z,2.05
2016-02-29T04:19:56.613Z,2.12
2016-02-29T04:20:56.616Z,2.17
2016-02-29T04:21:56.619Z,2.1
2016-02-29T04:22:56.606Z,2.1
2016-02-29T04:23:56.624Z,2.09
2016-02-29T04:24:56.611Z,2.12
2016-02-29T04:25:56.614Z,2.07
2016-02-29T04:26:56.585Z,1.99
2016-02-29T04:27:56.588Z,2.14
2016-02-29T04:28:56.577Z,1.95
2016-02-29T04:29:56.579Z,1.98
2016-02-29T04:30:56.597Z,2
2016-02-29T04:31:56.569Z,2
2016-02-29T04:32:56.571Z,1.98
2016-02-29T04:33:56.574Z,1.98
2016-02-29T04:34:56.560Z,1.9
2016-02-29T04:35:56.564Z,1.99
2016-02-29T04:36:56.551Z,1.93
2016-02-29T04:37:56.554Z,1.87
2016-02-29T04:38:56.556Z,1.93
2016-02-29T04:39:56.543Z,1.86
2016-02-29T04:40:56.531Z,1.87
2016-02-29T04:41:56.533Z,1.9
2016-02-29T04:42:56.536Z,1.84
2016-02-29T04:43:56.523Z,1.84
2016-02-29T04:44:56.509Z,1.87
2016-02-29T04:45:56.512Z,1.84
2016-02-29T04:46:56.515Z,1.81
2016-02-29T04:47:56.502Z,1.8
2016-02-29T04:48:56.506Z,1.93
2016-02-29T04:49:56.492Z,1.83
2016-02-29T04:50:56.479Z,1.77
2016-02-29T04:51:56.481Z,1.73
2016-02-29T04:52:56.484Z,1.73
2016-02-29T04:53:56.472Z,1.8
2016-02-29T04:54:56.474Z,1.8
2016-02-29T04:55:56.492Z,1.76
2016-02-29T04:56:56.464Z,1.7
2016-02-29T04:57:56.452Z,1.8
2016-02-29T04:58:56.454Z,1.77
2016-02-29T04:59:56.457Z,1.77
2016-02-29T05:00:56.443Z,1.6
2016-02-29T05:01:56.431Z,1.76
2016-02-29T05:02:56.433Z,1.69
2016-02-29T05:03:56.421Z,1.77
2016-02-29T05:04:56.423Z,1.76
2016-02-29T05:05:56.429Z,1.8
2016-02-29T05:06:56.416Z,1.76
2016-02-29T05:07:56.402Z,1.77
2016-02-29T05:08:56.405Z,1.8
2016-02-29T05:09:56.424Z,1.79
2016-02-29T05:10:56.395Z,1.76
2016-02-29T05:11:56.382Z,1.72
2016-02-29T05:12:56.384Z,1.83
2016-02-29T05:13:56.372Z,1.66
2016-02-29T05:14:56.376Z,1.69
2016-02-29T05:15:56.378Z,1.65
2016-02-29T05:16:56.365Z,1.65
2016-02-29T05:17:56.367Z,1.65
2016-02-29T05:18:56.354Z,1.62
2016-02-29T05:19:56.356Z,1.66
2016-02-29T05:20:56.359Z,1.62
2016-02-29T05:21:56.331Z,1.65
2016-02-29T05:22:56.333Z,1.54
2016-02-29T05:23:56.180Z,1.52
2016-02-29T05:24:56.323Z,1.48
2016-02-29T05:25:56.325Z,1.5
2016-02-29T05:26:56.328Z,1.6
2016-02-29T05:27:56.331Z,1.44
2016-02-29T05:28:56.303Z,1.48
2016-02-29T05:29:56.305Z,1.48
2016-02-29T05:30:56.308Z,1.41
2016-02-29T05:31:56.529Z,1.41
2016-02-29T05:32:56.298Z,1.34
2016-02-29T05:33:56.317Z,1.26
2016-02-29T05:34:56.288Z,1.34
2016-02-29T05:35:56.275Z,1.32
2016-02-29T05:36:56.277Z,1.27
2016-02-29T05:37:56.249Z,1.32
2016-02-29T05:38:56.268Z,1.29
2016-02-29T05:39:56.271Z,1.3
2016-02-29T05:40:56.241Z,1.29
2016-02-29T05:41:56.260Z,1.29
2016-02-29T05:42:56.246Z,1.27
2016-02-29T05:43:56.235Z,1.3
2016-02-29T05:44:56.236Z,1.32
2016-02-29T05:45:56.224Z,1.27
2016-02-29T05:46:56.227Z,1.26
2016-02-29T05:47:56.198Z,1.24
2016-02-29T05:48:56.201Z,1.2
2016-02-29T05:49:56.204Z,1.27
2016-02-29T05:50:56.222Z,1.3
2016-02-29T05:51:56.459Z,1.24
2016-02-29T05:52:56.181Z,1.24
2016-02-29T05:53:56.167Z,1.3
2016-02-29T05:54:56.170Z,1.11
2016-02-29T05:55:56.219Z,1.23
2016-02-29T05:56:56.159Z,1.29
2016-02-29T05:57:56.248Z,1.24
2016-02-29T05:58:56.170Z,1.16
2016-02-29T05:59:56.786Z,1.23
2016-02-29T06:01:07.223Z,1.18
2016-02-29T06:01:56.460Z,1.24
2016-02-29T06:02:56.150Z,1.15
2016-02-29T06:03:56.122Z,1.22
2016-02-29T06:04:56.124Z,1.16
2016-02-29T06:05:56.128Z,1.2
2016-02-29T06:06:56.114Z,1.18
2016-02-29T06:07:56.102Z,1.16
2016-02-29T06:08:56.104Z,1.22
2016-02-29T06:09:56.091Z,1.2
2016-02-29T06:10:56.094Z,1.15
2016-02-29T06:11:56.097Z,1.22
2016-02-29T06:12:56.099Z,1.26
2016-02-29T06:13:56.071Z,1.2
2016-02-29T06:14:56.073Z,1.16
2016-02-29T06:15:56.061Z,1.18
2016-02-29T06:16:56.063Z,1.18
2016-02-29T06:17:56.043Z,1.27
2016-02-29T06:18:56.061Z,1.2
2016-02-29T06:19:56.032Z,1.16
2016-02-29T06:20:56.051Z,1.2
2016-02-29T06:21:56.037Z,1.16
2016-02-29T06:22:56.024Z,1.16
2016-02-29T06:23:56.027Z,1.22
2016-02-29T06:24:56.015Z,1.26
2016-02-29T06:25:56.032Z,1.18
2016-02-29T06:26:56.020Z,1.12
2016-02-29T06:27:56.022Z,1.16
2016-02-29T06:28:55.993Z,1.27
2016-02-29T06:29:56.012Z,1.14
2016-02-29T06:30:56.078Z,1.22
2016-02-29T06:31:56.001Z,1.11
2016-02-29T06:32:55.379Z,1.12
2016-02-29T06:33:55.975Z,1.18
2016-02-29T06:34:55.963Z,1.18
2016-02-29T06:35:55.950Z,1.16
2016-02-29T06:36:55.953Z,1.15
2016-02-29T06:37:55.956Z,1.18
2016-02-29T06:38:55.958Z,1.26
2016-02-29T06:39:55.945Z,1.14
2016-02-29T06:40:55.932Z,1.14
2016-02-29T06:41:56.028Z,1.16
2016-02-29T06:42:55.953Z,1.16
2016-02-29T06:43:55.972Z,1.18
2016-02-29T06:44:55.943Z,1.15
2016-02-29T06:45:55.914Z,1.15
2016-02-29T06:46:55.916Z,1.23
2016-02-29T06:47:55.905Z,1.18
2016-02-29T06:48:55.891Z,1.18
2016-02-29T06:49:55.910Z,1.15
2016-02-29T06:50:55.881Z,1.23
2016-02-29T06:51:55.915Z,1.15
2016-02-29T06:52:55.887Z,1.16
2016-02-29T06:53:55.904Z,1.18
2016-02-29T06:54:55.876Z,1.24
2016-02-29T06:55:55.895Z,1.14
2016-02-29T06:56:55.851Z,1.16
2016-02-29T06:57:55.837Z,1.3
2016-02-29T06:58:55.824Z,1.18
2016-02-29T06:59:55.842Z,1.18
2016-02-29T07:00:55.830Z,1.24
2016-02-29T07:01:55.817Z,1.24
2016-02-29T07:02:55.820Z,1.24
2016-02-29T07:03:55.822Z,1.32
2016-02-29T07:04:55.809Z,1.27
2016-02-29T07:05:56.015Z,1.22
2016-02-29T07:06:55.783Z,1.3
2016-02-29T07:07:55.802Z,1.18
2016-02-29T07:08:55.773Z,1.22
2016-02-29T07:09:55.775Z,1.24
2016-02-29T07:10:55.778Z,1.14
2016-02-29T07:11:55.766Z,1.22
2016-02-29T07:12:55.783Z,1.3
2016-02-29T07:13:55.755Z,1.23
2016-02-29T07:14:55.758Z,1.26
2016-02-29T07:15:55.745Z,1.23
2016-02-29T07:16:55.591Z,1.32
2016-02-29T07:17:55.735Z,1.24
2016-02-29T07:18:55.738Z,1.23
2016-02-29T07:19:55.725Z,1.33
2016-02-29T07:20:55.727Z,1.23
2016-02-29T07:21:55.715Z,1.26
2016-02-29T07:22:55.717Z,1.29
2016-02-29T07:23:55.720Z,1.23
2016-02-29T07:24:55.691Z,1.2
2016-02-29T07:25:55.725Z,1.26
2016-02-29T07:26:55.697Z,1.2
2016-02-29T07:27:55.699Z,1.18
2016-02-29T07:28:55.687Z,1.2
2016-02-29T07:29:55.689Z,1.18
2016-02-29T07:30:55.692Z,1.24
2016-02-29T07:31:55.679Z,1.12
2016-02-29T07:32:55.665Z,1.18
2016-02-29T07:33:55.668Z,1.27
2016-02-29T07:34:55.640Z,1.16
2016-02-29T07:35:55.642Z,1.15
2016-02-29T07:36:55.630Z,1.18
2016-02-29T07:37:55.664Z,1.24
2016-02-29T07:38:55.635Z,1.24
2016-02-29T07:39:55.623Z,1.23
2016-02-29T07:40:55.625Z,1.15
2016-02-29T07:41:55.644Z,1.26
2016-02-29T07:42:55.614Z,1.16
2016-02-29T07:43:55.617Z,1.15
2016-02-29T07:44:55.605Z,1.2
2016-02-29T07:45:55.608Z,1.15
2016-02-29T07:46:55.594Z,1.16
2016-02-29T07:47:55.597Z,1.2
2016-02-29T07:48:55.584Z,1.18
2016-02-29T07:49:55.571Z,1.27
2016-02-29T07:50:55.886Z,1.18
2016-02-29T07:51:55.560Z,1.29
2016-02-29T07:52:55.548Z,1.26
2016-02-29T07:53:55.582Z,1.15
2016-02-29T07:54:55.585Z,1.12
2016-02-29T07:55:55.556Z,1.16
2016-02-29T07:56:55.559Z,1.23
2016-02-29T07:57:55.546Z,1.15
2016-02-29T07:58:55.533Z,1.23
2016-02-29T07:59:55.551Z,1.2
2016-02-29T08:00:55.616Z,1.24
